sensor_id;sensor_type;location;lat;lon;timestamp;P1;durP1;ratioP1;P2;durP2;ratioP2
3016;SDS011;1518;52.408;13.060;2023-03-23T00:02:18;1.33;;;1.23;;
3016;SDS011;1518;52.408;13.060;2023-03-23T00:05:05;1.42;;;1.33;;
3016;SDS011;1518;52.408;13.060;2023-03-23T00:07:53;1.83;;;1.60;;
3016;SDS011;1518;52.408;13.060;2023-03-23T00:10:40;1.67;;;1.58;;
3016;SDS011;1518;52.408;13.060;2023-03-23T00:13:28;1.30;;;1.20;;
3016;SDS011;1518;52.408;13.060;2023-03-23T00:16:17;1.20;;;1.10;;
3016;SDS011;1518;52.408;13.060;2023-03-23T00:19:05;1.77;;;1.23;;
3016;SDS011;1518;52.408;13.060;2023-03-23T00:21:54;2.10;;;1.85;;
3016;SDS011;1518;52.408;13.060;2023-03-23T00:24:41;1.48;;;1.35;;
3016;SDS011;1518;52.408;13.060;2023-03-23T00:27:29;1.60;;;1.50;;
3016;SDS011;1518;52.408;13.060;2023-03-23T00:30:16;1.92;;;1.80;;
3016;SDS011;1518;52.408;13.060;2023-03-23T00:33:04;3.03;;;2.00;;
3016;SDS011;1518;52.408;13.060;2023-03-23T00:35:52;2.70;;;1.42;;
3016;SDS011;1518;52.408;13.060;2023-03-23T00:38:39;1.38;;;1.27;;
3016;SDS011;1518;52.408;13.060;2023-03-23T00:41:29;1.75;;;1.45;;
3016;SDS011;1518;52.408;13.060;2023-03-23T00:44:18;1.33;;;1.23;;
3016;SDS011;1518;52.408;13.060;2023-03-23T00:47:09;1.83;;;1.50;;
3016;SDS011;1518;52.408;13.060;2023-03-23T00:49:59;2.20;;;1.77;;
3016;SDS011;1518;52.408;13.060;2023-03-23T00:52:46;2.35;;;1.50;;
3016;SDS011;1518;52.408;13.060;2023-03-23T00:55:34;2.70;;;1.77;;
3016;SDS011;1518;52.408;13.060;2023-03-23T00:58:21;1.70;;;1.60;;
3016;SDS011;1518;52.408;13.060;2023-03-23T01:01:08;1.40;;;1.30;;
3016;SDS011;1518;52.408;13.060;2023-03-23T01:03:57;3.35;;;1.50;;
3016;SDS011;1518;52.408;13.060;2023-03-23T01:06:48;1.83;;;1.58;;
3016;SDS011;1518;52.408;13.060;2023-03-23T01:09:37;1.10;;;1.10;;
3016;SDS011;1518;52.408;13.060;2023-03-23T01:12:25;1.55;;;1.40;;
3016;SDS011;1518;52.408;13.060;2023-03-23T01:15:13;1.42;;;1.33;;
3016;SDS011;1518;52.408;13.060;2023-03-23T01:18:01;1.42;;;1.33;;
3016;SDS011;1518;52.408;13.060;2023-03-23T01:20:48;2.00;;;1.50;;
3016;SDS011;1518;52.408;13.060;2023-03-23T01:23:37;1.52;;;1.17;;
3016;SDS011;1518;52.408;13.060;2023-03-23T01:26:26;1.60;;;1.40;;
3016;SDS011;1518;52.408;13.060;2023-03-23T01:29:13;1.90;;;1.40;;
3016;SDS011;1518;52.408;13.060;2023-03-23T01:32:00;1.63;;;1.52;;
3016;SDS011;1518;52.408;13.060;2023-03-23T01:34:48;1.42;;;1.23;;
3016;SDS011;1518;52.408;13.060;2023-03-23T01:37:34;2.30;;;1.58;;
3016;SDS011;1518;52.408;13.060;2023-03-23T01:40:23;2.30;;;1.50;;
3016;SDS011;1518;52.408;13.060;2023-03-23T01:43:13;1.42;;;1.33;;
3016;SDS011;1518;52.408;13.060;2023-03-23T01:46:02;1.83;;;1.65;;
3016;SDS011;1518;52.408;13.060;2023-03-23T01:48:49;1.33;;;1.23;;
3016;SDS011;1518;52.408;13.060;2023-03-23T01:51:37;1.27;;;1.17;;
3016;SDS011;1518;52.408;13.060;2023-03-23T01:54:27;1.65;;;1.30;;
3016;SDS011;1518;52.408;13.060;2023-03-23T01:57:17;1.60;;;1.50;;
3016;SDS011;1518;52.408;13.060;2023-03-23T02:00:08;1.58;;;1.48;;
3016;SDS011;1518;52.408;13.060;2023-03-23T02:03:00;1.55;;;1.30;;
3016;SDS011;1518;52.408;13.060;2023-03-23T02:05:47;2.88;;;1.48;;
3016;SDS011;1518;52.408;13.060;2023-03-23T02:08:34;1.50;;;1.40;;
3016;SDS011;1518;52.408;13.060;2023-03-23T02:11:22;1.48;;;1.38;;
3016;SDS011;1518;52.408;13.060;2023-03-23T02:14:10;1.35;;;1.25;;
3016;SDS011;1518;52.408;13.060;2023-03-23T02:16:58;1.67;;;1.58;;
3016;SDS011;1518;52.408;13.060;2023-03-23T02:19:55;1.65;;;1.27;;
3016;SDS011;1518;52.408;13.060;2023-03-23T02:22:56;1.52;;;1.20;;
3016;SDS011;1518;52.408;13.060;2023-03-23T02:26:09;1.40;;;1.30;;
3016;SDS011;1518;52.408;13.060;2023-03-23T02:29:21;3.42;;;1.20;;
3016;SDS011;1518;52.408;13.060;2023-03-23T02:35:47;2.47;;;1.58;;
3016;SDS011;1518;52.408;13.060;2023-03-23T02:38:40;1.30;;;1.20;;
3016;SDS011;1518;52.408;13.060;2023-03-23T02:41:36;1.67;;;1.38;;
3016;SDS011;1518;52.408;13.060;2023-03-23T02:44:27;1.42;;;1.33;;
3016;SDS011;1518;52.408;13.060;2023-03-23T02:47:18;1.65;;;1.20;;
3016;SDS011;1518;52.408;13.060;2023-03-23T02:50:09;1.30;;;1.15;;
3016;SDS011;1518;52.408;13.060;2023-03-23T02:53:01;1.30;;;1.20;;
3016;SDS011;1518;52.408;13.060;2023-03-23T02:55:52;1.45;;;1.35;;
3016;SDS011;1518;52.408;13.060;2023-03-23T02:58:41;1.85;;;1.42;;
3016;SDS011;1518;52.408;13.060;2023-03-23T03:01:46;1.35;;;1.20;;
3016;SDS011;1518;52.408;13.060;2023-03-23T03:04:40;1.30;;;1.20;;
3016;SDS011;1518;52.408;13.060;2023-03-23T03:07:40;2.53;;;1.42;;
3016;SDS011;1518;52.408;13.060;2023-03-23T03:10:48;2.15;;;1.20;;
3016;SDS011;1518;52.408;13.060;2023-03-23T03:13:40;1.02;;;1.00;;
3016;SDS011;1518;52.408;13.060;2023-03-23T03:16:33;1.30;;;1.20;;
3016;SDS011;1518;52.408;13.060;2023-03-23T03:19:25;1.08;;;1.02;;
3016;SDS011;1518;52.408;13.060;2023-03-23T03:22:15;1.65;;;1.05;;
3016;SDS011;1518;52.408;13.060;2023-03-23T03:25:04;1.70;;;1.27;;
3016;SDS011;1518;52.408;13.060;2023-03-23T03:27:54;1.27;;;1.17;;
3016;SDS011;1518;52.408;13.060;2023-03-23T03:30:42;2.00;;;1.80;;
3016;SDS011;1518;52.408;13.060;2023-03-23T03:33:32;1.45;;;1.13;;
3016;SDS011;1518;52.408;13.060;2023-03-23T03:36:21;1.35;;;1.20;;
3016;SDS011;1518;52.408;13.060;2023-03-23T03:39:12;1.88;;;1.08;;
3016;SDS011;1518;52.408;13.060;2023-03-23T03:42:02;1.30;;;1.20;;
3016;SDS011;1518;52.408;13.060;2023-03-23T03:44:51;2.63;;;1.20;;
3016;SDS011;1518;52.408;13.060;2023-03-23T03:47:38;1.40;;;1.30;;
3016;SDS011;1518;52.408;13.060;2023-03-23T03:50:25;2.67;;;1.50;;
3016;SDS011;1518;52.408;13.060;2023-03-23T03:53:12;1.00;;;1.00;;
3016;SDS011;1518;52.408;13.060;2023-03-23T03:55:59;1.67;;;1.10;;
3016;SDS011;1518;52.408;13.060;2023-03-23T03:58:46;1.50;;;1.40;;
3016;SDS011;1518;52.408;13.060;2023-03-23T04:01:35;2.13;;;1.38;;
3016;SDS011;1518;52.408;13.060;2023-03-23T04:04:22;1.30;;;1.20;;
3016;SDS011;1518;52.408;13.060;2023-03-23T04:07:09;1.50;;;1.40;;
3016;SDS011;1518;52.408;13.060;2023-03-23T04:09:59;2.63;;;1.30;;
3016;SDS011;1518;52.408;13.060;2023-03-23T04:12:46;1.50;;;1.40;;
3016;SDS011;1518;52.408;13.060;2023-03-23T04:15:33;1.85;;;1.48;;
3016;SDS011;1518;52.408;13.060;2023-03-23T04:18:21;1.67;;;1.17;;
3016;SDS011;1518;52.408;13.060;2023-03-23T04:21:10;2.38;;;1.30;;
3016;SDS011;1518;52.408;13.060;2023-03-23T04:23:57;0.80;;;0.80;;
3016;SDS011;1518;52.408;13.060;2023-03-23T04:26:45;1.10;;;1.00;;
3016;SDS011;1518;52.408;13.060;2023-03-23T04:29:32;1.98;;;1.40;;
3016;SDS011;1518;52.408;13.060;2023-03-23T04:32:19;1.83;;;1.17;;
3016;SDS011;1518;52.408;13.060;2023-03-23T04:35:08;1.40;;;1.27;;
3016;SDS011;1518;52.408;13.060;2023-03-23T04:37:57;1.33;;;1.20;;
3016;SDS011;1518;52.408;13.060;2023-03-23T04:40:44;2.13;;;1.30;;
3016;SDS011;1518;52.408;13.060;2023-03-23T04:43:31;1.27;;;1.08;;
3016;SDS011;1518;52.408;13.060;2023-03-23T04:46:26;1.58;;;1.20;;
3016;SDS011;1518;52.408;13.060;2023-03-23T04:49:14;1.63;;;1.27;;
3016;SDS011;1518;52.408;13.060;2023-03-23T04:52:07;1.33;;;1.23;;
3016;SDS011;1518;52.408;13.060;2023-03-23T04:54:54;1.85;;;1.30;;
3016;SDS011;1518;52.408;13.060;2023-03-23T04:57:42;2.78;;;1.30;;
3016;SDS011;1518;52.408;13.060;2023-03-23T05:00:29;1.17;;;1.00;;
3016;SDS011;1518;52.408;13.060;2023-03-23T05:03:16;1.30;;;1.20;;
3016;SDS011;1518;52.408;13.060;2023-03-23T05:06:04;1.65;;;1.08;;
3016;SDS011;1518;52.408;13.060;2023-03-23T05:08:52;0.90;;;0.90;;
3016;SDS011;1518;52.408;13.060;2023-03-23T05:11:40;1.30;;;1.20;;
3016;SDS011;1518;52.408;13.060;2023-03-23T05:14:27;1.27;;;1.17;;
3016;SDS011;1518;52.408;13.060;2023-03-23T05:17:14;1.23;;;1.13;;
3016;SDS011;1518;52.408;13.060;2023-03-23T05:20:03;1.10;;;0.90;;
3016;SDS011;1518;52.408;13.060;2023-03-23T05:22:53;1.73;;;1.15;;
3016;SDS011;1518;52.408;13.060;2023-03-23T05:25:43;1.60;;;1.02;;
3016;SDS011;1518;52.408;13.060;2023-03-23T05:28:32;1.10;;;1.00;;
3016;SDS011;1518;52.408;13.060;2023-03-23T05:31:20;1.38;;;1.00;;
3016;SDS011;1518;52.408;13.060;2023-03-23T05:34:06;4.10;;;1.50;;
3016;SDS011;1518;52.408;13.060;2023-03-23T05:36:54;1.15;;;1.05;;
3016;SDS011;1518;52.408;13.060;2023-03-23T05:39:42;1.85;;;1.15;;
3016;SDS011;1518;52.408;13.060;2023-03-23T05:42:31;1.33;;;1.17;;
3016;SDS011;1518;52.408;13.060;2023-03-23T05:45:19;1.25;;;1.05;;
3016;SDS011;1518;52.408;13.060;2023-03-23T05:48:06;1.40;;;1.00;;
3016;SDS011;1518;52.408;13.060;2023-03-23T05:50:54;1.10;;;1.10;;
3016;SDS011;1518;52.408;13.060;2023-03-23T05:53:41;2.03;;;1.10;;
3016;SDS011;1518;52.408;13.060;2023-03-23T05:56:28;1.58;;;1.48;;
3016;SDS011;1518;52.408;13.060;2023-03-23T05:59:17;1.10;;;1.00;;
3016;SDS011;1518;52.408;13.060;2023-03-23T06:02:04;1.35;;;0.93;;
3016;SDS011;1518;52.408;13.060;2023-03-23T06:04:51;1.52;;;1.25;;
3016;SDS011;1518;52.408;13.060;2023-03-23T06:07:42;1.10;;;1.00;;
3016;SDS011;1518;52.408;13.060;2023-03-23T06:10:30;1.20;;;1.00;;
3016;SDS011;1518;52.408;13.060;2023-03-23T06:13:18;1.20;;;1.10;;
3016;SDS011;1518;52.408;13.060;2023-03-23T06:16:07;1.17;;;1.08;;
3016;SDS011;1518;52.408;13.060;2023-03-23T06:18:54;1.60;;;1.20;;
3016;SDS011;1518;52.408;13.060;2023-03-23T06:21:42;1.77;;;1.40;;
3016;SDS011;1518;52.408;13.060;2023-03-23T06:24:30;1.10;;;0.90;;
3016;SDS011;1518;52.408;13.060;2023-03-23T06:27:17;1.10;;;1.00;;
3016;SDS011;1518;52.408;13.060;2023-03-23T06:30:06;1.40;;;1.02;;
3016;SDS011;1518;52.408;13.060;2023-03-23T06:32:55;1.80;;;1.10;;
3016;SDS011;1518;52.408;13.060;2023-03-23T06:35:42;1.20;;;1.00;;
3016;SDS011;1518;52.408;13.060;2023-03-23T06:38:29;1.27;;;1.27;;
3016;SDS011;1518;52.408;13.060;2023-03-23T06:41:17;2.25;;;1.20;;
3016;SDS011;1518;52.408;13.060;2023-03-23T06:44:04;1.77;;;1.38;;
3016;SDS011;1518;52.408;13.060;2023-03-23T06:46:51;1.00;;;0.90;;
3016;SDS011;1518;52.408;13.060;2023-03-23T06:49:40;1.13;;;1.02;;
3016;SDS011;1518;52.408;13.060;2023-03-23T06:52:27;1.38;;;1.27;;
3016;SDS011;1518;52.408;13.060;2023-03-23T06:55:14;1.50;;;1.20;;
3016;SDS011;1518;52.408;13.060;2023-03-23T06:58:02;1.13;;;1.00;;
3016;SDS011;1518;52.408;13.060;2023-03-23T07:00:52;3.83;;;1.30;;
3016;SDS011;1518;52.408;13.060;2023-03-23T07:03:40;1.42;;;1.33;;
3016;SDS011;1518;52.408;13.060;2023-03-23T07:06:29;1.52;;;1.10;;
3016;SDS011;1518;52.408;13.060;2023-03-23T07:09:16;1.20;;;1.10;;
3016;SDS011;1518;52.408;13.060;2023-03-23T07:12:04;1.35;;;1.20;;
3016;SDS011;1518;52.408;13.060;2023-03-23T07:14:52;1.13;;;1.02;;
3016;SDS011;1518;52.408;13.060;2023-03-23T07:17:39;1.05;;;1.00;;
3016;SDS011;1518;52.408;13.060;2023-03-23T07:20:26;1.10;;;1.00;;
3016;SDS011;1518;52.408;13.060;2023-03-23T07:23:14;2.45;;;0.95;;
3016;SDS011;1518;52.408;13.060;2023-03-23T07:26:02;1.70;;;1.10;;
3016;SDS011;1518;52.408;13.060;2023-03-23T07:28:49;3.05;;;1.10;;
3016;SDS011;1518;52.408;13.060;2023-03-23T07:31:36;1.13;;;1.00;;
3016;SDS011;1518;52.408;13.060;2023-03-23T07:34:23;1.00;;;0.90;;
3016;SDS011;1518;52.408;13.060;2023-03-23T07:37:11;1.45;;;1.17;;
3016;SDS011;1518;52.408;13.060;2023-03-23T07:39:59;4.88;;;1.10;;
3016;SDS011;1518;52.408;13.060;2023-03-23T07:42:50;4.32;;;1.40;;
3016;SDS011;1518;52.408;13.060;2023-03-23T07:45:39;0.88;;;0.88;;
3016;SDS011;1518;52.408;13.060;2023-03-23T07:48:26;1.70;;;0.95;;
3016;SDS011;1518;52.408;13.060;2023-03-23T07:51:13;2.80;;;1.00;;
3016;SDS011;1518;52.408;13.060;2023-03-23T07:54:01;1.88;;;0.93;;
3016;SDS011;1518;52.408;13.060;2023-03-23T07:56:51;1.48;;;0.80;;
3016;SDS011;1518;52.408;13.060;2023-03-23T07:59:38;1.60;;;1.08;;
3016;SDS011;1518;52.408;13.060;2023-03-23T08:02:25;1.35;;;1.25;;
3016;SDS011;1518;52.408;13.060;2023-03-23T08:05:12;2.30;;;1.00;;
3016;SDS011;1518;52.408;13.060;2023-03-23T08:08:00;35.67;;;7.95;;
3016;SDS011;1518;52.408;13.060;2023-03-23T08:10:47;25.48;;;3.67;;
3016;SDS011;1518;52.408;13.060;2023-03-23T08:13:36;11.80;;;2.85;;
3016;SDS011;1518;52.408;13.060;2023-03-23T08:16:23;6.80;;;2.25;;
3016;SDS011;1518;52.408;13.060;2023-03-23T08:19:11;3.25;;;1.10;;
3016;SDS011;1518;52.408;13.060;2023-03-23T08:21:58;3.25;;;1.45;;
3016;SDS011;1518;52.408;13.060;2023-03-23T08:24:45;3.13;;;1.13;;
3016;SDS011;1518;52.408;13.060;2023-03-23T08:27:32;1.88;;;1.50;;
3016;SDS011;1518;52.408;13.060;2023-03-23T08:30:20;3.85;;;1.20;;
3016;SDS011;1518;52.408;13.060;2023-03-23T08:33:08;57.63;;;9.27;;
3016;SDS011;1518;52.408;13.060;2023-03-23T08:35:57;81.35;;;13.55;;
3016;SDS011;1518;52.408;13.060;2023-03-23T08:38:46;43.97;;;8.60;;
3016;SDS011;1518;52.408;13.060;2023-03-23T08:41:33;14.18;;;3.05;;
3016;SDS011;1518;52.408;13.060;2023-03-23T08:44:20;9.23;;;2.42;;
3016;SDS011;1518;52.408;13.060;2023-03-23T08:47:08;3.33;;;1.20;;
3016;SDS011;1518;52.408;13.060;2023-03-23T08:49:55;2.05;;;1.20;;
3016;SDS011;1518;52.408;13.060;2023-03-23T08:52:42;1.85;;;1.10;;
3016;SDS011;1518;52.408;13.060;2023-03-23T08:55:30;1.83;;;1.15;;
3016;SDS011;1518;52.408;13.060;2023-03-23T08:58:17;1.27;;;1.17;;
3016;SDS011;1518;52.408;13.060;2023-03-23T09:01:04;0.90;;;0.90;;
3016;SDS011;1518;52.408;13.060;2023-03-23T09:03:53;2.95;;;1.00;;
3016;SDS011;1518;52.408;13.060;2023-03-23T09:06:40;1.50;;;1.05;;
3016;SDS011;1518;52.408;13.060;2023-03-23T09:09:28;3.88;;;1.50;;
3016;SDS011;1518;52.408;13.060;2023-03-23T09:12:15;1.33;;;1.17;;
3016;SDS011;1518;52.408;13.060;2023-03-23T09:15:02;1.40;;;1.23;;
3016;SDS011;1518;52.408;13.060;2023-03-23T09:17:53;2.47;;;1.35;;
3016;SDS011;1518;52.408;13.060;2023-03-23T09:20:43;3.08;;;1.20;;
3016;SDS011;1518;52.408;13.060;2023-03-23T09:23:30;1.67;;;1.10;;
3016;SDS011;1518;52.408;13.060;2023-03-23T09:26:18;1.95;;;0.80;;
3016;SDS011;1518;52.408;13.060;2023-03-23T09:29:05;1.38;;;1.27;;
3016;SDS011;1518;52.408;13.060;2023-03-23T09:31:52;3.25;;;1.08;;
3016;SDS011;1518;52.408;13.060;2023-03-23T09:34:39;1.20;;;1.10;;
3016;SDS011;1518;52.408;13.060;2023-03-23T09:37:28;1.98;;;1.02;;
3016;SDS011;1518;52.408;13.060;2023-03-23T09:40:15;1.17;;;1.08;;
3016;SDS011;1518;52.408;13.060;2023-03-23T09:43:07;1.80;;;1.15;;
3016;SDS011;1518;52.408;13.060;2023-03-23T09:46:14;2.13;;;1.10;;
3016;SDS011;1518;52.408;13.060;2023-03-23T09:49:14;1.52;;;1.30;;
3016;SDS011;1518;52.408;13.060;2023-03-23T09:52:05;3.28;;;2.97;;
3016;SDS011;1518;52.408;13.060;2023-03-23T09:55:00;3.67;;;1.92;;
3016;SDS011;1518;52.408;13.060;2023-03-23T09:57:49;6.65;;;1.77;;
3016;SDS011;1518;52.408;13.060;2023-03-23T10:00:43;1.52;;;1.20;;
3016;SDS011;1518;52.408;13.060;2023-03-23T10:03:36;2.05;;;1.02;;
3016;SDS011;1518;52.408;13.060;2023-03-23T10:06:26;3.42;;;0.82;;
3016;SDS011;1518;52.408;13.060;2023-03-23T10:09:14;2.42;;;1.27;;
3016;SDS011;1518;52.408;13.060;2023-03-23T10:12:07;9.55;;;5.22;;
3016;SDS011;1518;52.408;13.060;2023-03-23T10:15:04;6.22;;;3.28;;
3016;SDS011;1518;52.408;13.060;2023-03-23T10:17:59;2.50;;;1.70;;
3016;SDS011;1518;52.408;13.060;2023-03-23T10:20:48;3.42;;;1.60;;
3016;SDS011;1518;52.408;13.060;2023-03-23T10:23:41;3.40;;;1.30;;
3016;SDS011;1518;52.408;13.060;2023-03-23T10:26:38;3.85;;;1.25;;
3016;SDS011;1518;52.408;13.060;2023-03-23T10:29:35;1.45;;;1.08;;
3016;SDS011;1518;52.408;13.060;2023-03-23T10:32:36;2.95;;;1.20;;
3016;SDS011;1518;52.408;13.060;2023-03-23T10:35:29;3.55;;;1.05;;
3016;SDS011;1518;52.408;13.060;2023-03-23T10:38:23;1.33;;;0.93;;
3016;SDS011;1518;52.408;13.060;2023-03-23T10:41:13;0.93;;;0.90;;
3016;SDS011;1518;52.408;13.060;2023-03-23T10:44:04;2.70;;;1.25;;
3016;SDS011;1518;52.408;13.060;2023-03-23T10:46:58;1.35;;;1.27;;
3016;SDS011;1518;52.408;13.060;2023-03-23T10:49:48;10.75;;;7.07;;
3016;SDS011;1518;52.408;13.060;2023-03-23T10:52:38;8.35;;;4.70;;
3016;SDS011;1518;52.408;13.060;2023-03-23T10:55:35;2.22;;;2.03;;
3016;SDS011;1518;52.408;13.060;2023-03-23T10:58:24;1.77;;;1.30;;
3016;SDS011;1518;52.408;13.060;2023-03-23T11:01:14;2.55;;;1.30;;
3016;SDS011;1518;52.408;13.060;2023-03-23T11:04:11;2.45;;;1.27;;
3016;SDS011;1518;52.408;13.060;2023-03-23T11:07:00;1.17;;;1.08;;
3016;SDS011;1518;52.408;13.060;2023-03-23T11:09:53;1.70;;;1.60;;
3016;SDS011;1518;52.408;13.060;2023-03-23T11:12:43;7.15;;;3.53;;
3016;SDS011;1518;52.408;13.060;2023-03-23T11:15:32;11.63;;;6.90;;
3016;SDS011;1518;52.408;13.060;2023-03-23T11:18:22;5.63;;;3.28;;
3016;SDS011;1518;52.408;13.060;2023-03-23T11:21:13;2.20;;;1.98;;
3016;SDS011;1518;52.408;13.060;2023-03-23T11:24:02;3.40;;;2.10;;
3016;SDS011;1518;52.408;13.060;2023-03-23T11:26:49;1.52;;;1.25;;
3016;SDS011;1518;52.408;13.060;2023-03-23T11:29:42;1.65;;;1.00;;
3016;SDS011;1518;52.408;13.060;2023-03-23T11:32:33;1.92;;;1.10;;
3016;SDS011;1518;52.408;13.060;2023-03-23T11:35:22;4.07;;;1.30;;
3016;SDS011;1518;52.408;13.060;2023-03-23T11:38:16;3.40;;;1.13;;
3016;SDS011;1518;52.408;13.060;2023-03-23T11:41:08;1.83;;;1.10;;
3016;SDS011;1518;52.408;13.060;2023-03-23T11:43:58;12.23;;;6.78;;
3016;SDS011;1518;52.408;13.060;2023-03-23T11:46:58;5.78;;;2.38;;
3016;SDS011;1518;52.408;13.060;2023-03-23T11:49:50;7.72;;;4.95;;
3016;SDS011;1518;52.408;13.060;2023-03-23T11:52:43;7.78;;;4.32;;
3016;SDS011;1518;52.408;13.060;2023-03-23T11:55:36;4.40;;;2.55;;
3016;SDS011;1518;52.408;13.060;2023-03-23T11:58:38;1.80;;;1.70;;
3016;SDS011;1518;52.408;13.060;2023-03-23T12:01:37;2.72;;;1.95;;
3016;SDS011;1518;52.408;13.060;2023-03-23T12:04:33;2.33;;;1.58;;
3016;SDS011;1518;52.408;13.060;2023-03-23T12:07:30;2.92;;;1.88;;
3016;SDS011;1518;52.408;13.060;2023-03-23T12:10:38;1.58;;;1.08;;
3016;SDS011;1518;52.408;13.060;2023-03-23T12:13:33;1.10;;;1.00;;
3016;SDS011;1518;52.408;13.060;2023-03-23T12:16:50;0.88;;;0.88;;
3016;SDS011;1518;52.408;13.060;2023-03-23T12:19:45;4.18;;;1.40;;
3016;SDS011;1518;52.408;13.060;2023-03-23T12:22:43;1.33;;;1.20;;
3016;SDS011;1518;52.408;13.060;2023-03-23T12:25:43;1.90;;;1.13;;
3016;SDS011;1518;52.408;13.060;2023-03-23T12:28:47;1.50;;;1.20;;
3016;SDS011;1518;52.408;13.060;2023-03-23T12:31:49;1.13;;;1.02;;
3016;SDS011;1518;52.408;13.060;2023-03-23T12:34:46;5.25;;;1.80;;
3016;SDS011;1518;52.408;13.060;2023-03-23T12:37:41;1.20;;;1.10;;
3016;SDS011;1518;52.408;13.060;2023-03-23T12:40:45;1.40;;;1.00;;
3016;SDS011;1518;52.408;13.060;2023-03-23T12:43:47;1.48;;;1.02;;
3016;SDS011;1518;52.408;13.060;2023-03-23T12:46:50;1.77;;;1.00;;
3016;SDS011;1518;52.408;13.060;2023-03-23T12:49:46;1.23;;;1.02;;
3016;SDS011;1518;52.408;13.060;2023-03-23T12:52:38;1.00;;;0.90;;
3016;SDS011;1518;52.408;13.060;2023-03-23T12:55:33;1.70;;;0.70;;
3016;SDS011;1518;52.408;13.060;2023-03-23T12:58:26;1.70;;;1.27;;
3016;SDS011;1518;52.408;13.060;2023-03-23T13:01:17;3.50;;;2.28;;
3016;SDS011;1518;52.408;13.060;2023-03-23T13:04:09;3.83;;;1.85;;
3016;SDS011;1518;52.408;13.060;2023-03-23T13:06:58;2.47;;;1.40;;
3016;SDS011;1518;52.408;13.060;2023-03-23T13:09:50;2.25;;;1.58;;
3016;SDS011;1518;52.408;13.060;2023-03-23T13:12:42;3.35;;;1.27;;
3016;SDS011;1518;52.408;13.060;2023-03-23T13:15:33;10.95;;;2.17;;
3016;SDS011;1518;52.408;13.060;2023-03-23T13:18:27;2.38;;;1.45;;
3016;SDS011;1518;52.408;13.060;2023-03-23T13:21:24;1.85;;;1.58;;
3016;SDS011;1518;52.408;13.060;2023-03-23T13:24:18;1.30;;;1.20;;
3016;SDS011;1518;52.408;13.060;2023-03-23T13:27:09;1.55;;;1.30;;
3016;SDS011;1518;52.408;13.060;2023-03-23T13:29:57;2.78;;;1.13;;
3016;SDS011;1518;52.408;13.060;2023-03-23T13:32:46;3.03;;;1.42;;
3016;SDS011;1518;52.408;13.060;2023-03-23T13:35:33;1.40;;;1.30;;
3016;SDS011;1518;52.408;13.060;2023-03-23T13:38:24;1.42;;;0.95;;
3016;SDS011;1518;52.408;13.060;2023-03-23T13:41:14;1.20;;;1.10;;
3016;SDS011;1518;52.408;13.060;2023-03-23T13:44:15;1.58;;;1.40;;
3016;SDS011;1518;52.408;13.060;2023-03-23T13:47:07;9.38;;;1.55;;
3016;SDS011;1518;52.408;13.060;2023-03-23T13:50:24;1.83;;;1.40;;
3016;SDS011;1518;52.408;13.060;2023-03-23T13:53:21;3.63;;;0.90;;
3016;SDS011;1518;52.408;13.060;2023-03-23T13:56:13;1.50;;;0.90;;
3016;SDS011;1518;52.408;13.060;2023-03-23T13:59:05;2.35;;;0.98;;
3016;SDS011;1518;52.408;13.060;2023-03-23T14:01:53;1.23;;;1.10;;
3016;SDS011;1518;52.408;13.060;2023-03-23T14:04:41;1.52;;;1.05;;
3016;SDS011;1518;52.408;13.060;2023-03-23T14:07:30;1.60;;;1.38;;
3016;SDS011;1518;52.408;13.060;2023-03-23T14:10:17;1.48;;;1.38;;
3016;SDS011;1518;52.408;13.060;2023-03-23T14:13:05;2.45;;;0.90;;
3016;SDS011;1518;52.408;13.060;2023-03-23T14:15:58;1.52;;;1.00;;
3016;SDS011;1518;52.408;13.060;2023-03-23T14:18:53;2.83;;;2.00;;
3016;SDS011;1518;52.408;13.060;2023-03-23T14:21:41;2.03;;;1.48;;
3016;SDS011;1518;52.408;13.060;2023-03-23T14:24:40;1.60;;;1.40;;
3016;SDS011;1518;52.408;13.060;2023-03-23T14:27:27;4.57;;;1.45;;
3016;SDS011;1518;52.408;13.060;2023-03-23T14:30:15;1.10;;;1.00;;
3016;SDS011;1518;52.408;13.060;2023-03-23T14:33:05;2.13;;;1.13;;
3016;SDS011;1518;52.408;13.060;2023-03-23T14:35:53;1.40;;;0.90;;
3016;SDS011;1518;52.408;13.060;2023-03-23T14:38:44;1.52;;;0.88;;
3016;SDS011;1518;52.408;13.060;2023-03-23T14:41:33;1.20;;;1.10;;
3016;SDS011;1518;52.408;13.060;2023-03-23T14:44:22;1.20;;;1.10;;
3016;SDS011;1518;52.408;13.060;2023-03-23T14:47:15;1.13;;;0.90;;
3016;SDS011;1518;52.408;13.060;2023-03-23T14:50:06;5.07;;;2.00;;
3016;SDS011;1518;52.408;13.060;2023-03-23T14:53:18;2.42;;;1.33;;
3016;SDS011;1518;52.408;13.060;2023-03-23T14:56:09;1.17;;;1.08;;
3016;SDS011;1518;52.408;13.060;2023-03-23T14:59:02;2.70;;;1.15;;
3016;SDS011;1518;52.408;13.060;2023-03-23T15:01:51;1.00;;;0.90;;
3016;SDS011;1518;52.408;13.060;2023-03-23T15:04:39;1.63;;;1.10;;
3016;SDS011;1518;52.408;13.060;2023-03-23T15:07:29;2.15;;;1.00;;
3016;SDS011;1518;52.408;13.060;2023-03-23T15:10:18;1.27;;;1.17;;
3016;SDS011;1518;52.408;13.060;2023-03-23T15:13:08;1.63;;;1.13;;
3016;SDS011;1518;52.408;13.060;2023-03-23T15:16:03;1.20;;;1.10;;
3016;SDS011;1518;52.408;13.060;2023-03-23T15:18:53;1.60;;;1.02;;
3016;SDS011;1518;52.408;13.060;2023-03-23T15:21:46;1.20;;;0.85;;
3016;SDS011;1518;52.408;13.060;2023-03-23T15:24:37;1.23;;;1.08;;
3016;SDS011;1518;52.408;13.060;2023-03-23T15:27:27;2.65;;;1.13;;
3016;SDS011;1518;52.408;13.060;2023-03-23T15:30:18;1.10;;;1.00;;
3016;SDS011;1518;52.408;13.060;2023-03-23T15:33:18;1.17;;;1.08;;
3016;SDS011;1518;52.408;13.060;2023-03-23T15:36:16;4.30;;;1.40;;
3016;SDS011;1518;52.408;13.060;2023-03-23T15:39:05;1.30;;;0.90;;
3016;SDS011;1518;52.408;13.060;2023-03-23T15:41:56;1.48;;;1.00;;
3016;SDS011;1518;52.408;13.060;2023-03-23T15:44:43;1.25;;;1.00;;
3016;SDS011;1518;52.408;13.060;2023-03-23T15:47:44;1.23;;;0.90;;
3016;SDS011;1518;52.408;13.060;2023-03-23T15:50:35;1.95;;;1.00;;
3016;SDS011;1518;52.408;13.060;2023-03-23T15:53:25;6.35;;;1.10;;
3016;SDS011;1518;52.408;13.060;2023-03-23T15:56:14;1.40;;;0.80;;
3016;SDS011;1518;52.408;13.060;2023-03-23T15:59:01;0.98;;;0.88;;
3016;SDS011;1518;52.408;13.060;2023-03-23T16:01:49;1.67;;;1.10;;
3016;SDS011;1518;52.408;13.060;2023-03-23T16:04:37;1.70;;;1.10;;
3016;SDS011;1518;52.408;13.060;2023-03-23T16:07:30;2.08;;;1.08;;
3016;SDS011;1518;52.408;13.060;2023-03-23T16:10:20;1.13;;;1.00;;
3016;SDS011;1518;52.408;13.060;2023-03-23T16:13:09;1.80;;;1.10;;
3016;SDS011;1518;52.408;13.060;2023-03-23T16:15:58;1.40;;;0.85;;
3016;SDS011;1518;52.408;13.060;2023-03-23T16:18:46;1.00;;;0.90;;
3016;SDS011;1518;52.408;13.060;2023-03-23T16:21:34;1.05;;;0.90;;
3016;SDS011;1518;52.408;13.060;2023-03-23T16:24:24;1.90;;;1.30;;
3016;SDS011;1518;52.408;13.060;2023-03-23T16:27:12;2.75;;;1.15;;
3016;SDS011;1518;52.408;13.060;2023-03-23T16:30:00;3.55;;;1.10;;
3016;SDS011;1518;52.408;13.060;2023-03-23T16:32:50;2.20;;;1.23;;
3016;SDS011;1518;52.408;13.060;2023-03-23T16:35:42;1.48;;;1.00;;
3016;SDS011;1518;52.408;13.060;2023-03-23T16:38:30;4.05;;;1.40;;
3016;SDS011;1518;52.408;13.060;2023-03-23T16:41:36;2.88;;;1.48;;
3016;SDS011;1518;52.408;13.060;2023-03-23T16:44:24;2.78;;;1.50;;
3016;SDS011;1518;52.408;13.060;2023-03-23T16:47:12;1.83;;;1.00;;
3016;SDS011;1518;52.408;13.060;2023-03-23T16:50:00;1.95;;;1.10;;
3016;SDS011;1518;52.408;13.060;2023-03-23T16:52:48;1.92;;;1.20;;
3016;SDS011;1518;52.408;13.060;2023-03-23T16:55:37;1.15;;;1.00;;
3016;SDS011;1518;52.408;13.060;2023-03-23T16:58:27;3.28;;;1.92;;
3016;SDS011;1518;52.408;13.060;2023-03-23T17:01:15;2.30;;;1.17;;
3016;SDS011;1518;52.408;13.060;2023-03-23T17:04:03;1.25;;;1.00;;
3016;SDS011;1518;52.408;13.060;2023-03-23T17:06:52;2.25;;;1.13;;
3016;SDS011;1518;52.408;13.060;2023-03-23T17:09:40;0.90;;;0.90;;
3016;SDS011;1518;52.408;13.060;2023-03-23T17:12:28;1.73;;;1.30;;
3016;SDS011;1518;52.408;13.060;2023-03-23T17:15:17;1.50;;;0.93;;
3016;SDS011;1518;52.408;13.060;2023-03-23T17:18:06;1.35;;;0.80;;
3016;SDS011;1518;52.408;13.060;2023-03-23T17:20:54;1.20;;;1.00;;
3016;SDS011;1518;52.408;13.060;2023-03-23T17:23:43;1.25;;;1.15;;
3016;SDS011;1518;52.408;13.060;2023-03-23T17:26:31;1.73;;;0.98;;